»·PEaware :: N101JP KPSP-KHHR

N101JP :: KPSP-KHHR

FLIGHT INFORMATION

Flight Status: Arrived
Operator: Privately registered:
United States
More flights under this callsign
Pilot: James T. (870)
Aircraft: BEECH AIRCRAFT SUPER KING AIR COMMUTER
(BE20)
More flights by this aircraft type
Origin: KPSP Palm Springs Intl
United States
Destination: KHHR Northrop/Hawthorne Mun
United States
More flights between these airports :: More routes between these airports
Route: +CATH1 PSP V388 PDZ PDZ270R HHR RY25 LOC
File this flight plan on PilotEdge
Remarks: PSPP9
Altitude:
(Current/Filed)
12,000ft
Speed:
(Current/Filed)
200kts
Departed: 23-Aug-20 11:24 AM
Arrived: 23-Aug-20 12:00 PM
Distance/Time
Traveled:
91nm/0:36
Distance/Time
To Go:
Arrived

Flight Plot

Page will automatically refresh every two minutes.

Flight plan parsing failed; only flown route is shown


Map Options




Map Legend


Flown Route
Filed Route
Departure Airport
Arrival Airport
Navaid (VOR, NDB)
Fix

Horizontal Profiles

Position Reports

Time Latitude Longitude Heading Altitude Ground
Speed
23-Aug-20 10:41 33.824099 -116.507811 211 481ft 0kts
23-Aug-20 10:42 33.824099 -116.507811 211 481ft 0kts
23-Aug-20 10:43 33.824099 -116.507811 211 481ft 0kts
23-Aug-20 10:44 33.824099 -116.507811 211 481ft 0kts
23-Aug-20 10:45 33.824099 -116.507811 211 481ft 0kts
23-Aug-20 10:46 33.824099 -116.507811 211 481ft 0kts
23-Aug-20 10:47 33.824099 -116.507811 211 481ft 0kts
23-Aug-20 10:48 33.824099 -116.507811 211 481ft 0kts
23-Aug-20 10:49 33.824099 -116.507811 211 481ft 0kts
23-Aug-20 10:50 33.824099 -116.507811 211 481ft 0kts
23-Aug-20 10:51 33.824099 -116.507811 211 481ft 0kts
23-Aug-20 10:52 33.824099 -116.507811 211 481ft 0kts
23-Aug-20 10:53 33.824099 -116.507811 211 481ft 0kts
23-Aug-20 10:54 33.824099 -116.507811 211 481ft 0kts
23-Aug-20 10:55 33.824099 -116.507811 211 481ft 0kts
23-Aug-20 10:56 33.824099 -116.507811 211 481ft 0kts
23-Aug-20 10:57 33.824099 -116.507811 211 481ft 0kts
23-Aug-20 10:58 33.824099 -116.507811 211 481ft 0kts
23-Aug-20 10:59 33.824099 -116.507811 211 481ft 0kts
23-Aug-20 11:00 33.824099 -116.507811 211 481ft 0kts
23-Aug-20 11:01 33.824099 -116.507811 211 481ft 0kts
23-Aug-20 11:02 33.824099 -116.507811 211 481ft 0kts
23-Aug-20 11:03 33.824099 -116.507811 211 481ft 0kts
23-Aug-20 11:04 33.824099 -116.507811 211 481ft 0kts
23-Aug-20 11:05 33.824099 -116.507811 211 481ft 0kts
23-Aug-20 11:06 33.824099 -116.507811 211 481ft 0kts
23-Aug-20 11:07 33.824099 -116.507811 211 481ft 0kts
23-Aug-20 11:08 33.824099 -116.507811 211 481ft 0kts
23-Aug-20 11:09 33.824099 -116.507811 211 481ft 0kts
23-Aug-20 11:10 33.824099 -116.507811 211 481ft 0kts
23-Aug-20 11:11 33.824099 -116.507811 211 481ft 0kts
23-Aug-20 11:12 33.824099 -116.507811 211 481ft 0kts
23-Aug-20 11:13 33.824099 -116.507811 211 481ft 0kts
23-Aug-20 11:14 33.824099 -116.507811 211 481ft 0kts
23-Aug-20 11:15 33.824094 -116.507814 211 481ft 0kts
23-Aug-20 11:16 33.824157 -116.505715 135 481ft 13kts
23-Aug-20 11:17 33.822170 -116.503033 143 481ft 8kts
23-Aug-20 11:18 33.820052 -116.501150 143 481ft 12kts
23-Aug-20 11:19 33.818526 -116.499256 90 481ft 5kts
23-Aug-20 11:20 33.818523 -116.499024 91 481ft 0kts
23-Aug-20 11:21 33.818523 -116.499024 91 481ft 0kts
23-Aug-20 11:22 33.819259 -116.498397 324 481ft 0kts
23-Aug-20 11:23 33.829931 -116.507908 322 680ft 141kts
23-Aug-20 11:24 33.865014 -116.542060 321 2540ft 169kts
23-Aug-20 11:25 33.902375 -116.577284 338 4358ft 178kts
23-Aug-20 11:26 33.917361 -116.538234 120 5992ft 187kts
23-Aug-20 11:27 33.893156 -116.483419 115 8260ft 180kts
23-Aug-20 11:28 33.891085 -116.431462 23 10175ft 183kts
23-Aug-20 11:29 33.910586 -116.469822 243 11788ft 187kts
23-Aug-20 11:30 33.915737 -116.539126 280 12010ft 240kts
23-Aug-20 11:31 33.928055 -116.616898 281 11999ft 234kts
23-Aug-20 11:32 33.939802 -116.690104 281 11997ft 213kts
23-Aug-20 11:33 33.947147 -116.758994 267 11999ft 205kts
23-Aug-20 11:34 33.944653 -116.827157 267 12002ft 210kts
23-Aug-20 11:35 33.942068 -116.898483 267 12000ft 216kts
23-Aug-20 11:36 33.939345 -116.971457 267 11761ft 227kts
23-Aug-20 11:37 33.936401 -117.049278 267 10829ft 232kts
23-Aug-20 11:38 33.933647 -117.121584 267 9737ft 209kts
23-Aug-20 11:39 33.931282 -117.188474 267 9013ft 200kts
23-Aug-20 11:40 33.928352 -117.253819 266 8257ft 202kts
23-Aug-20 11:41 33.925577 -117.322189 267 7074ft 209kts
23-Aug-20 11:43 33.922853 -117.391643 267 5884ft 207kts
23-Aug-20 11:44 33.920205 -117.460450 267 4701ft 206kts
23-Aug-20 11:45 33.917978 -117.529619 277 3929ft 220kts
23-Aug-20 11:46 33.932904 -117.598920 284 3971ft 198kts
23-Aug-20 11:47 33.946133 -117.658628 285 3916ft 178kts
23-Aug-20 11:48 33.949687 -117.717886 267 3524ft 186kts
23-Aug-20 11:49 33.947403 -117.778342 267 3401ft 177kts
23-Aug-20 11:50 33.944832 -117.839617 267 3401ft 188kts
23-Aug-20 11:51 33.942015 -117.902420 267 2956ft 183kts
23-Aug-20 11:52 33.939483 -117.962429 267 2699ft 177kts
23-Aug-20 11:53 33.936820 -118.020978 267 2703ft 179kts
23-Aug-20 11:54 33.934093 -118.081421 267 2517ft 175kts
23-Aug-20 11:55 33.931588 -118.138207 266 1666ft 175kts
23-Aug-20 11:56 33.928920 -118.198489 266 1501ft 185kts
23-Aug-20 11:57 33.926639 -118.252832 266 1291ft 138kts
23-Aug-20 11:57 33.925066 -118.287247 266 760ft 112kts
23-Aug-20 11:59 33.923125 -118.329377 265 76ft 86kts
23-Aug-20 12:00 33.922040 -118.337240 131 68ft 6kts
23-Aug-20 12:00 33.921865 -118.336491 88 68ft 0kts
23-Aug-20 12:01 33.921865 -118.336491 88 68ft 0kts
23-Aug-20 12:02 33.921865 -118.336491 88 68ft 0kts
23-Aug-20 12:04 33.921865 -118.336491 88 68ft 0kts
23-Aug-20 12:04 33.921865 -118.336491 88 68ft 0kts
23-Aug-20 12:05 33.921865 -118.336491 88 68ft 0kts
23-Aug-20 12:06 33.921865 -118.336491 88 68ft 0kts
23-Aug-20 12:07 33.921865 -118.336491 88 68ft 0kts
23-Aug-20 12:08 33.921865 -118.336491 88 68ft 0kts
23-Aug-20 12:09 33.921865 -118.336491 88 68ft 0kts
23-Aug-20 12:10 33.921865 -118.336491 88 68ft 0kts
23-Aug-20 12:11 33.921865 -118.336491 88 68ft 0kts
23-Aug-20 12:12 33.921865 -118.336491 88 68ft 0kts
23-Aug-20 12:13 33.921865 -118.336491 88 68ft 0kts
23-Aug-20 12:14 33.921865 -118.336491 88 68ft 0kts

Navigation Log

Ident Type
Flight plan parsing failed, navigation log unavailable